sensor_id;sensor_type;location;lat;lon;timestamp;P1;durP1;ratioP1;P2;durP2;ratioP2
83059;SDS011;72884;44.366;3.426;2023-12-04T00:02:19;0.60;;;0.60;;
83059;SDS011;72884;44.366;3.426;2023-12-04T00:04:44;0.60;;;0.60;;
83059;SDS011;72884;44.366;3.426;2023-12-04T00:07:10;0.60;;;0.60;;
83059;SDS011;72884;44.366;3.426;2023-12-04T00:09:35;0.80;;;0.70;;
83059;SDS011;72884;44.366;3.426;2023-12-04T00:12:00;0.95;;;0.60;;
83059;SDS011;72884;44.366;3.426;2023-12-04T00:14:26;0.88;;;0.60;;
83059;SDS011;72884;44.366;3.426;2023-12-04T00:16:51;0.68;;;0.68;;
83059;SDS011;72884;44.366;3.426;2023-12-04T00:19:17;0.60;;;0.60;;
83059;SDS011;72884;44.366;3.426;2023-12-04T00:21:42;0.65;;;0.65;;
83059;SDS011;72884;44.366;3.426;2023-12-04T00:24:07;1.25;;;0.70;;
83059;SDS011;72884;44.366;3.426;2023-12-04T00:26:33;0.80;;;0.80;;
83059;SDS011;72884;44.366;3.426;2023-12-04T00:28:58;1.10;;;0.60;;
83059;SDS011;72884;44.366;3.426;2023-12-04T00:31:23;0.77;;;0.77;;
83059;SDS011;72884;44.366;3.426;2023-12-04T00:33:49;3.28;;;0.60;;
83059;SDS011;72884;44.366;3.426;2023-12-04T00:36:14;0.50;;;0.50;;
83059;SDS011;72884;44.366;3.426;2023-12-04T00:38:39;0.60;;;0.60;;
83059;SDS011;72884;44.366;3.426;2023-12-04T00:41:05;0.50;;;0.50;;
83059;SDS011;72884;44.366;3.426;2023-12-04T00:43:30;1.15;;;0.70;;
83059;SDS011;72884;44.366;3.426;2023-12-04T00:45:56;1.67;;;0.73;;
83059;SDS011;72884;44.366;3.426;2023-12-04T00:48:21;0.50;;;0.50;;
83059;SDS011;72884;44.366;3.426;2023-12-04T00:50:46;0.60;;;0.60;;
83059;SDS011;72884;44.366;3.426;2023-12-04T00:53:12;1.60;;;0.82;;
83059;SDS011;72884;44.366;3.426;2023-12-04T00:55:38;0.82;;;0.70;;
83059;SDS011;72884;44.366;3.426;2023-12-04T00:58:03;0.40;;;0.40;;
83059;SDS011;72884;44.366;3.426;2023-12-04T01:00:29;0.82;;;0.60;;
83059;SDS011;72884;44.366;3.426;2023-12-04T01:02:54;0.88;;;0.80;;
83059;SDS011;72884;44.366;3.426;2023-12-04T01:05:19;0.60;;;0.60;;
83059;SDS011;72884;44.366;3.426;2023-12-04T01:07:45;0.50;;;0.50;;
83059;SDS011;72884;44.366;3.426;2023-12-04T01:10:10;0.70;;;0.70;;
83059;SDS011;72884;44.366;3.426;2023-12-04T01:12:36;1.00;;;0.70;;
83059;SDS011;72884;44.366;3.426;2023-12-04T01:15:01;0.50;;;0.50;;
83059;SDS011;72884;44.366;3.426;2023-12-04T01:17:27;0.55;;;0.50;;
83059;SDS011;72884;44.366;3.426;2023-12-04T01:19:52;0.60;;;0.60;;
83059;SDS011;72884;44.366;3.426;2023-12-04T01:22:18;0.70;;;0.50;;
83059;SDS011;72884;44.366;3.426;2023-12-04T01:24:43;0.55;;;0.55;;
83059;SDS011;72884;44.366;3.426;2023-12-04T01:27:08;0.65;;;0.65;;
83059;SDS011;72884;44.366;3.426;2023-12-04T01:29:34;0.60;;;0.60;;
83059;SDS011;72884;44.366;3.426;2023-12-04T01:32:00;0.80;;;0.63;;
83059;SDS011;72884;44.366;3.426;2023-12-04T01:34:25;0.73;;;0.55;;
83059;SDS011;72884;44.366;3.426;2023-12-04T01:36:51;0.70;;;0.70;;
83059;SDS011;72884;44.366;3.426;2023-12-04T01:39:16;0.52;;;0.52;;
83059;SDS011;72884;44.366;3.426;2023-12-04T01:41:41;0.55;;;0.55;;
83059;SDS011;72884;44.366;3.426;2023-12-04T01:44:07;0.47;;;0.47;;
83059;SDS011;72884;44.366;3.426;2023-12-04T01:46:32;0.90;;;0.55;;
83059;SDS011;72884;44.366;3.426;2023-12-04T01:48:58;0.60;;;0.60;;
83059;SDS011;72884;44.366;3.426;2023-12-04T01:51:23;0.40;;;0.40;;
83059;SDS011;72884;44.366;3.426;2023-12-04T01:53:49;0.50;;;0.50;;
83059;SDS011;72884;44.366;3.426;2023-12-04T01:56:15;0.40;;;0.40;;
83059;SDS011;72884;44.366;3.426;2023-12-04T01:58:42;0.50;;;0.50;;
83059;SDS011;72884;44.366;3.426;2023-12-04T02:01:07;0.65;;;0.57;;
83059;SDS011;72884;44.366;3.426;2023-12-04T02:03:33;0.73;;;0.68;;
83059;SDS011;72884;44.366;3.426;2023-12-04T02:05:59;0.60;;;0.60;;
83059;SDS011;72884;44.366;3.426;2023-12-04T02:08:26;0.52;;;0.52;;
83059;SDS011;72884;44.366;3.426;2023-12-04T02:10:51;0.55;;;0.55;;
83059;SDS011;72884;44.366;3.426;2023-12-04T02:13:17;0.63;;;0.60;;
83059;SDS011;72884;44.366;3.426;2023-12-04T02:15:42;0.52;;;0.52;;
83059;SDS011;72884;44.366;3.426;2023-12-04T02:18:08;0.70;;;0.60;;
83059;SDS011;72884;44.366;3.426;2023-12-04T02:20:34;0.50;;;0.50;;
83059;SDS011;72884;44.366;3.426;2023-12-04T02:23:00;0.63;;;0.60;;
83059;SDS011;72884;44.366;3.426;2023-12-04T02:25:26;0.47;;;0.47;;
83059;SDS011;72884;44.366;3.426;2023-12-04T02:27:52;0.50;;;0.50;;
83059;SDS011;72884;44.366;3.426;2023-12-04T02:30:19;0.60;;;0.60;;
83059;SDS011;72884;44.366;3.426;2023-12-04T02:32:46;0.65;;;0.45;;
83059;SDS011;72884;44.366;3.426;2023-12-04T02:35:13;0.88;;;0.57;;
83059;SDS011;72884;44.366;3.426;2023-12-04T02:37:40;0.40;;;0.40;;
83059;SDS011;72884;44.366;3.426;2023-12-04T02:40:07;0.40;;;0.40;;
83059;SDS011;72884;44.366;3.426;2023-12-04T02:42:33;0.68;;;0.60;;
83059;SDS011;72884;44.366;3.426;2023-12-04T02:44:58;0.50;;;0.50;;
83059;SDS011;72884;44.366;3.426;2023-12-04T02:47:24;0.60;;;0.60;;
83059;SDS011;72884;44.366;3.426;2023-12-04T02:49:49;0.93;;;0.70;;
83059;SDS011;72884;44.366;3.426;2023-12-04T02:52:15;0.47;;;0.47;;
83059;SDS011;72884;44.366;3.426;2023-12-04T02:54:40;0.50;;;0.50;;
83059;SDS011;72884;44.366;3.426;2023-12-04T02:57:06;0.57;;;0.57;;
83059;SDS011;72884;44.366;3.426;2023-12-04T02:59:31;0.30;;;0.30;;
83059;SDS011;72884;44.366;3.426;2023-12-04T03:01:56;0.50;;;0.50;;
83059;SDS011;72884;44.366;3.426;2023-12-04T03:04:22;0.50;;;0.50;;
83059;SDS011;72884;44.366;3.426;2023-12-04T03:06:47;0.55;;;0.55;;
83059;SDS011;72884;44.366;3.426;2023-12-04T03:09:13;0.57;;;0.57;;
83059;SDS011;72884;44.366;3.426;2023-12-04T03:11:41;0.60;;;0.60;;
83059;SDS011;72884;44.366;3.426;2023-12-04T03:14:07;0.38;;;0.38;;
83059;SDS011;72884;44.366;3.426;2023-12-04T03:16:32;0.68;;;0.68;;
83059;SDS011;72884;44.366;3.426;2023-12-04T03:18:58;0.60;;;0.50;;
83059;SDS011;72884;44.366;3.426;2023-12-04T03:21:23;0.65;;;0.65;;
83059;SDS011;72884;44.366;3.426;2023-12-04T03:23:49;0.70;;;0.60;;
83059;SDS011;72884;44.366;3.426;2023-12-04T03:26:14;0.50;;;0.50;;
83059;SDS011;72884;44.366;3.426;2023-12-04T03:28:40;0.47;;;0.47;;
83059;SDS011;72884;44.366;3.426;2023-12-04T03:31:05;0.50;;;0.50;;
83059;SDS011;72884;44.366;3.426;2023-12-04T03:33:31;0.63;;;0.40;;
83059;SDS011;72884;44.366;3.426;2023-12-04T03:35:56;0.60;;;0.60;;
83059;SDS011;72884;44.366;3.426;2023-12-04T03:38:22;0.50;;;0.50;;
83059;SDS011;72884;44.366;3.426;2023-12-04T03:40:47;0.68;;;0.40;;
83059;SDS011;72884;44.366;3.426;2023-12-04T03:43:12;0.50;;;0.50;;
83059;SDS011;72884;44.366;3.426;2023-12-04T03:45:38;0.57;;;0.57;;
83059;SDS011;72884;44.366;3.426;2023-12-04T03:48:03;0.50;;;0.50;;
83059;SDS011;72884;44.366;3.426;2023-12-04T03:50:29;0.50;;;0.45;;
83059;SDS011;72884;44.366;3.426;2023-12-04T03:52:54;0.60;;;0.60;;
83059;SDS011;72884;44.366;3.426;2023-12-04T03:55:20;2.97;;;0.63;;
83059;SDS011;72884;44.366;3.426;2023-12-04T03:57:45;0.65;;;0.40;;
83059;SDS011;72884;44.366;3.426;2023-12-04T04:00:11;0.50;;;0.50;;
83059;SDS011;72884;44.366;3.426;2023-12-04T04:02:38;0.50;;;0.50;;
83059;SDS011;72884;44.366;3.426;2023-12-04T04:05:04;0.70;;;0.70;;
83059;SDS011;72884;44.366;3.426;2023-12-04T04:07:30;1.23;;;0.80;;
83059;SDS011;72884;44.366;3.426;2023-12-04T04:09:56;0.65;;;0.60;;
83059;SDS011;72884;44.366;3.426;2023-12-04T04:12:21;0.82;;;0.57;;
83059;SDS011;72884;44.366;3.426;2023-12-04T04:14:47;0.50;;;0.50;;
83059;SDS011;72884;44.366;3.426;2023-12-04T04:17:12;0.50;;;0.50;;
83059;SDS011;72884;44.366;3.426;2023-12-04T04:19:38;0.70;;;0.60;;
83059;SDS011;72884;44.366;3.426;2023-12-04T04:22:03;0.50;;;0.50;;
83059;SDS011;72884;44.366;3.426;2023-12-04T04:24:28;0.55;;;0.52;;
83059;SDS011;72884;44.366;3.426;2023-12-04T04:26:54;1.58;;;0.88;;
83059;SDS011;72884;44.366;3.426;2023-12-04T04:29:19;1.02;;;0.45;;
83059;SDS011;72884;44.366;3.426;2023-12-04T04:31:45;0.65;;;0.47;;
83059;SDS011;72884;44.366;3.426;2023-12-04T04:34:10;0.60;;;0.60;;
83059;SDS011;72884;44.366;3.426;2023-12-04T04:36:35;0.47;;;0.47;;
83059;SDS011;72884;44.366;3.426;2023-12-04T04:39:01;0.65;;;0.60;;
83059;SDS011;72884;44.366;3.426;2023-12-04T04:41:27;0.73;;;0.60;;
83059;SDS011;72884;44.366;3.426;2023-12-04T04:43:52;0.50;;;0.50;;
83059;SDS011;72884;44.366;3.426;2023-12-04T04:46:18;0.50;;;0.50;;
83059;SDS011;72884;44.366;3.426;2023-12-04T04:48:44;0.50;;;0.50;;
83059;SDS011;72884;44.366;3.426;2023-12-04T04:51:09;0.75;;;0.60;;
83059;SDS011;72884;44.366;3.426;2023-12-04T04:53:34;0.70;;;0.60;;
83059;SDS011;72884;44.366;3.426;2023-12-04T04:56:00;0.65;;;0.45;;
83059;SDS011;72884;44.366;3.426;2023-12-04T04:58:25;0.50;;;0.50;;
83059;SDS011;72884;44.366;3.426;2023-12-04T05:00:50;0.50;;;0.50;;
83059;SDS011;72884;44.366;3.426;2023-12-04T05:03:16;0.55;;;0.50;;
83059;SDS011;72884;44.366;3.426;2023-12-04T05:05:41;0.40;;;0.40;;
83059;SDS011;72884;44.366;3.426;2023-12-04T05:08:07;0.75;;;0.60;;
83059;SDS011;72884;44.366;3.426;2023-12-04T05:10:32;0.40;;;0.40;;
83059;SDS011;72884;44.366;3.426;2023-12-04T05:12:57;0.30;;;0.30;;
83059;SDS011;72884;44.366;3.426;2023-12-04T05:15:23;0.50;;;0.50;;
83059;SDS011;72884;44.366;3.426;2023-12-04T05:17:48;0.85;;;0.65;;
83059;SDS011;72884;44.366;3.426;2023-12-04T05:20:14;0.93;;;0.50;;
83059;SDS011;72884;44.366;3.426;2023-12-04T05:22:39;0.65;;;0.50;;
83059;SDS011;72884;44.366;3.426;2023-12-04T05:25:05;0.50;;;0.50;;
83059;SDS011;72884;44.366;3.426;2023-12-04T05:27:31;0.60;;;0.60;;
83059;SDS011;72884;44.366;3.426;2023-12-04T05:29:57;0.40;;;0.40;;
83059;SDS011;72884;44.366;3.426;2023-12-04T05:32:22;0.88;;;0.50;;
83059;SDS011;72884;44.366;3.426;2023-12-04T05:34:47;0.50;;;0.50;;
83059;SDS011;72884;44.366;3.426;2023-12-04T05:37:13;0.30;;;0.30;;
83059;SDS011;72884;44.366;3.426;2023-12-04T05:39:38;0.50;;;0.50;;
83059;SDS011;72884;44.366;3.426;2023-12-04T05:42:04;0.47;;;0.47;;
83059;SDS011;72884;44.366;3.426;2023-12-04T05:44:30;0.50;;;0.50;;
83059;SDS011;72884;44.366;3.426;2023-12-04T05:46:56;0.57;;;0.57;;
83059;SDS011;72884;44.366;3.426;2023-12-04T05:49:21;0.50;;;0.50;;
83059;SDS011;72884;44.366;3.426;2023-12-04T05:51:46;0.90;;;0.55;;
83059;SDS011;72884;44.366;3.426;2023-12-04T05:54:12;0.50;;;0.50;;
83059;SDS011;72884;44.366;3.426;2023-12-04T05:56:37;0.50;;;0.50;;
83059;SDS011;72884;44.366;3.426;2023-12-04T05:59:02;1.02;;;0.65;;
83059;SDS011;72884;44.366;3.426;2023-12-04T06:01:28;0.50;;;0.50;;
83059;SDS011;72884;44.366;3.426;2023-12-04T06:03:53;0.47;;;0.47;;
83059;SDS011;72884;44.366;3.426;2023-12-04T06:06:19;0.50;;;0.50;;
83059;SDS011;72884;44.366;3.426;2023-12-04T06:08:44;0.55;;;0.55;;
83059;SDS011;72884;44.366;3.426;2023-12-04T06:11:09;1.13;;;0.50;;
83059;SDS011;72884;44.366;3.426;2023-12-04T06:13:35;1.52;;;0.50;;
83059;SDS011;72884;44.366;3.426;2023-12-04T06:16:01;0.40;;;0.40;;
83059;SDS011;72884;44.366;3.426;2023-12-04T06:18:26;0.40;;;0.40;;
83059;SDS011;72884;44.366;3.426;2023-12-04T06:20:52;0.43;;;0.43;;
83059;SDS011;72884;44.366;3.426;2023-12-04T06:23:17;0.40;;;0.40;;
83059;SDS011;72884;44.366;3.426;2023-12-04T06:25:44;0.40;;;0.40;;
83059;SDS011;72884;44.366;3.426;2023-12-04T06:28:09;0.50;;;0.50;;
83059;SDS011;72884;44.366;3.426;2023-12-04T06:30:35;1.58;;;0.60;;
83059;SDS011;72884;44.366;3.426;2023-12-04T06:33:01;2.17;;;0.50;;
83059;SDS011;72884;44.366;3.426;2023-12-04T06:35:28;0.43;;;0.40;;
83059;SDS011;72884;44.366;3.426;2023-12-04T06:37:53;1.00;;;0.50;;
83059;SDS011;72884;44.366;3.426;2023-12-04T06:42:48;0.68;;;0.60;;
83059;SDS011;72884;44.366;3.426;2023-12-04T06:45:13;15.05;;;1.10;;
83059;SDS011;72884;44.366;3.426;2023-12-04T06:47:43;3.28;;;0.80;;
83059;SDS011;72884;44.366;3.426;2023-12-04T06:50:08;4.13;;;0.60;;
83059;SDS011;72884;44.366;3.426;2023-12-04T06:52:34;1.00;;;0.45;;
83059;SDS011;72884;44.366;3.426;2023-12-04T06:54:59;3.78;;;0.50;;
83059;SDS011;72884;44.366;3.426;2023-12-04T06:57:25;1.58;;;0.38;;
83059;SDS011;72884;44.366;3.426;2023-12-04T06:59:50;1.05;;;0.60;;
83059;SDS011;72884;44.366;3.426;2023-12-04T07:02:16;0.20;;;0.20;;
83059;SDS011;72884;44.366;3.426;2023-12-04T07:04:41;2.45;;;0.40;;
83059;SDS011;72884;44.366;3.426;2023-12-04T07:07:07;1.60;;;0.60;;
83059;SDS011;72884;44.366;3.426;2023-12-04T07:09:32;0.60;;;0.40;;
83059;SDS011;72884;44.366;3.426;2023-12-04T07:11:59;1.77;;;0.40;;
83059;SDS011;72884;44.366;3.426;2023-12-04T07:14:24;2.38;;;0.70;;
83059;SDS011;72884;44.366;3.426;2023-12-04T07:16:49;3.58;;;0.57;;
83059;SDS011;72884;44.366;3.426;2023-12-04T07:19:15;3.25;;;0.50;;
83059;SDS011;72884;44.366;3.426;2023-12-04T07:21:41;1.52;;;0.47;;
83059;SDS011;72884;44.366;3.426;2023-12-04T07:24:07;1.17;;;0.40;;
83059;SDS011;72884;44.366;3.426;2023-12-04T07:26:33;1.30;;;0.50;;
83059;SDS011;72884;44.366;3.426;2023-12-04T07:28:59;2.90;;;0.50;;
83059;SDS011;72884;44.366;3.426;2023-12-04T07:31:24;14.68;;;0.70;;
83059;SDS011;72884;44.366;3.426;2023-12-04T07:33:52;4.55;;;0.55;;
83059;SDS011;72884;44.366;3.426;2023-12-04T07:36:18;3.55;;;0.50;;
83059;SDS011;72884;44.366;3.426;2023-12-04T07:38:43;7.43;;;0.40;;
83059;SDS011;72884;44.366;3.426;2023-12-04T07:41:08;13.20;;;0.70;;
83059;SDS011;72884;44.366;3.426;2023-12-04T07:43:34;4.15;;;0.52;;
83059;SDS011;72884;44.366;3.426;2023-12-04T07:45:59;8.13;;;1.10;;
83059;SDS011;72884;44.366;3.426;2023-12-04T07:48:25;2.75;;;1.10;;
83059;SDS011;72884;44.366;3.426;2023-12-04T07:50:50;2.47;;;0.90;;
83059;SDS011;72884;44.366;3.426;2023-12-04T07:53:16;4.68;;;1.08;;
83059;SDS011;72884;44.366;3.426;2023-12-04T07:55:41;4.38;;;0.90;;
83059;SDS011;72884;44.366;3.426;2023-12-04T07:58:08;1.55;;;0.80;;
83059;SDS011;72884;44.366;3.426;2023-12-04T08:00:34;4.53;;;1.30;;
83059;SDS011;72884;44.366;3.426;2023-12-04T08:03:00;1.75;;;0.65;;
83059;SDS011;72884;44.366;3.426;2023-12-04T08:05:25;4.10;;;1.10;;
83059;SDS011;72884;44.366;3.426;2023-12-04T08:07:52;1.77;;;0.80;;
83059;SDS011;72884;44.366;3.426;2023-12-04T08:10:17;5.68;;;1.00;;
83059;SDS011;72884;44.366;3.426;2023-12-04T08:12:46;2.92;;;0.70;;
83059;SDS011;72884;44.366;3.426;2023-12-04T08:15:11;1.40;;;0.80;;
83059;SDS011;72884;44.366;3.426;2023-12-04T08:17:37;3.88;;;1.30;;
83059;SDS011;72884;44.366;3.426;2023-12-04T08:20:02;3.70;;;0.85;;
83059;SDS011;72884;44.366;3.426;2023-12-04T08:22:29;3.65;;;0.60;;
83059;SDS011;72884;44.366;3.426;2023-12-04T08:24:54;2.55;;;0.70;;
83059;SDS011;72884;44.366;3.426;2023-12-04T08:27:19;5.55;;;0.70;;
83059;SDS011;72884;44.366;3.426;2023-12-04T08:29:45;14.18;;;0.80;;
83059;SDS011;72884;44.366;3.426;2023-12-04T08:32:11;1.52;;;0.73;;
83059;SDS011;72884;44.366;3.426;2023-12-04T08:34:36;1.27;;;0.60;;
83059;SDS011;72884;44.366;3.426;2023-12-04T08:37:01;5.53;;;1.00;;
83059;SDS011;72884;44.366;3.426;2023-12-04T08:39:27;2.58;;;0.70;;
83059;SDS011;72884;44.366;3.426;2023-12-04T08:41:52;3.67;;;0.70;;
83059;SDS011;72884;44.366;3.426;2023-12-04T08:44:18;5.25;;;0.75;;
83059;SDS011;72884;44.366;3.426;2023-12-04T08:46:43;2.95;;;0.80;;
83059;SDS011;72884;44.366;3.426;2023-12-04T08:49:09;1.63;;;0.60;;
83059;SDS011;72884;44.366;3.426;2023-12-04T08:51:35;5.95;;;0.82;;
83059;SDS011;72884;44.366;3.426;2023-12-04T08:54:00;5.80;;;0.70;;
83059;SDS011;72884;44.366;3.426;2023-12-04T08:56:26;6.38;;;0.77;;
83059;SDS011;72884;44.366;3.426;2023-12-04T08:58:51;2.22;;;0.90;;
83059;SDS011;72884;44.366;3.426;2023-12-04T09:01:17;3.35;;;0.70;;
83059;SDS011;72884;44.366;3.426;2023-12-04T09:03:42;5.35;;;0.73;;
83059;SDS011;72884;44.366;3.426;2023-12-04T09:06:07;4.93;;;0.80;;
83059;SDS011;72884;44.366;3.426;2023-12-04T09:08:34;1.20;;;0.60;;
83059;SDS011;72884;44.366;3.426;2023-12-04T09:10:59;5.07;;;0.70;;
83059;SDS011;72884;44.366;3.426;2023-12-04T09:13:25;2.85;;;0.82;;
83059;SDS011;72884;44.366;3.426;2023-12-04T09:15:51;8.45;;;1.02;;
83059;SDS011;72884;44.366;3.426;2023-12-04T09:18:16;5.13;;;0.70;;
83059;SDS011;72884;44.366;3.426;2023-12-04T09:20:42;2.38;;;0.65;;
83059;SDS011;72884;44.366;3.426;2023-12-04T09:23:07;7.95;;;0.80;;
83059;SDS011;72884;44.366;3.426;2023-12-04T09:25:34;2.13;;;0.70;;
83059;SDS011;72884;44.366;3.426;2023-12-04T09:28:00;3.22;;;0.60;;
83059;SDS011;72884;44.366;3.426;2023-12-04T09:30:25;1.83;;;0.60;;
83059;SDS011;72884;44.366;3.426;2023-12-04T09:32:51;3.42;;;0.70;;
83059;SDS011;72884;44.366;3.426;2023-12-04T09:35:16;3.33;;;0.60;;
83059;SDS011;72884;44.366;3.426;2023-12-04T09:37:41;3.15;;;0.85;;
83059;SDS011;72884;44.366;3.426;2023-12-04T09:40:07;2.70;;;0.50;;
83059;SDS011;72884;44.366;3.426;2023-12-04T09:42:33;4.43;;;0.60;;
83059;SDS011;72884;44.366;3.426;2023-12-04T09:44:59;3.70;;;0.63;;
83059;SDS011;72884;44.366;3.426;2023-12-04T09:47:26;3.58;;;0.68;;
83059;SDS011;72884;44.366;3.426;2023-12-04T09:49:52;1.38;;;0.50;;
83059;SDS011;72884;44.366;3.426;2023-12-04T09:52:18;2.85;;;0.80;;
83059;SDS011;72884;44.366;3.426;2023-12-04T09:54:44;5.95;;;0.73;;
83059;SDS011;72884;44.366;3.426;2023-12-04T09:57:10;1.05;;;0.50;;
83059;SDS011;72884;44.366;3.426;2023-12-04T09:59:35;5.97;;;0.77;;
83059;SDS011;72884;44.366;3.426;2023-12-04T10:02:01;3.55;;;1.08;;
83059;SDS011;72884;44.366;3.426;2023-12-04T10:04:27;6.80;;;0.80;;
83059;SDS011;72884;44.366;3.426;2023-12-04T10:06:52;5.57;;;0.70;;
83059;SDS011;72884;44.366;3.426;2023-12-04T10:09:18;13.70;;;1.00;;
83059;SDS011;72884;44.366;3.426;2023-12-04T10:11:44;7.90;;;0.70;;
83059;SDS011;72884;44.366;3.426;2023-12-04T10:14:19;6.32;;;0.65;;
83059;SDS011;72884;44.366;3.426;2023-12-04T10:16:45;4.25;;;0.75;;
83059;SDS011;72884;44.366;3.426;2023-12-04T10:19:18;4.13;;;0.77;;
83059;SDS011;72884;44.366;3.426;2023-12-04T10:21:55;2.30;;;0.40;;
83059;SDS011;72884;44.366;3.426;2023-12-04T10:26:58;4.32;;;0.73;;
83059;SDS011;72884;44.366;3.426;2023-12-04T10:29:24;2.45;;;0.70;;
83059;SDS011;72884;44.366;3.426;2023-12-04T10:31:52;7.15;;;0.77;;
83059;SDS011;72884;44.366;3.426;2023-12-04T10:34:20;4.65;;;1.02;;
83059;SDS011;72884;44.366;3.426;2023-12-04T10:36:46;6.97;;;1.45;;
83059;SDS011;72884;44.366;3.426;2023-12-04T10:39:12;0.70;;;0.70;;
83059;SDS011;72884;44.366;3.426;2023-12-04T10:41:42;3.35;;;0.88;;
83059;SDS011;72884;44.366;3.426;2023-12-04T10:44:07;1.95;;;0.80;;
83059;SDS011;72884;44.366;3.426;2023-12-04T10:46:33;3.10;;;0.73;;
83059;SDS011;72884;44.366;3.426;2023-12-04T10:49:01;4.20;;;0.70;;
83059;SDS011;72884;44.366;3.426;2023-12-04T10:51:30;3.60;;;0.82;;
83059;SDS011;72884;44.366;3.426;2023-12-04T10:53:55;3.88;;;0.98;;
83059;SDS011;72884;44.366;3.426;2023-12-04T10:56:31;6.90;;;1.10;;
83059;SDS011;72884;44.366;3.426;2023-12-04T10:59:01;5.45;;;1.00;;
83059;SDS011;72884;44.366;3.426;2023-12-04T11:01:28;6.70;;;1.20;;
83059;SDS011;72884;44.366;3.426;2023-12-04T11:03:55;5.38;;;1.33;;
83059;SDS011;72884;44.366;3.426;2023-12-04T11:06:21;6.28;;;1.00;;
83059;SDS011;72884;44.366;3.426;2023-12-04T11:08:48;11.80;;;1.17;;
83059;SDS011;72884;44.366;3.426;2023-12-04T11:11:51;10.90;;;1.30;;
83059;SDS011;72884;44.366;3.426;2023-12-04T11:14:09;6.18;;;1.00;;
83059;SDS011;72884;44.366;3.426;2023-12-04T11:16:48;4.72;;;0.85;;
83059;SDS011;72884;44.366;3.426;2023-12-04T11:19:18;6.00;;;1.23;;
83059;SDS011;72884;44.366;3.426;2023-12-04T11:21:49;8.55;;;1.00;;
83059;SDS011;72884;44.366;3.426;2023-12-04T11:24:16;4.80;;;0.77;;
83059;SDS011;72884;44.366;3.426;2023-12-04T11:26:43;5.07;;;0.90;;
83059;SDS011;72884;44.366;3.426;2023-12-04T11:29:09;4.28;;;0.95;;
83059;SDS011;72884;44.366;3.426;2023-12-04T11:31:35;4.78;;;0.95;;
83059;SDS011;72884;44.366;3.426;2023-12-04T11:34:01;6.30;;;1.20;;
83059;SDS011;72884;44.366;3.426;2023-12-04T11:36:30;2.90;;;0.90;;
83059;SDS011;72884;44.366;3.426;2023-12-04T11:38:56;6.60;;;0.82;;
83059;SDS011;72884;44.366;3.426;2023-12-04T11:41:24;4.20;;;1.20;;
83059;SDS011;72884;44.366;3.426;2023-12-04T11:43:50;4.05;;;1.02;;
83059;SDS011;72884;44.366;3.426;2023-12-04T11:46:23;4.55;;;1.23;;
83059;SDS011;72884;44.366;3.426;2023-12-04T11:48:50;4.63;;;1.35;;
83059;SDS011;72884;44.366;3.426;2023-12-04T11:54:16;5.18;;;1.02;;
83059;SDS011;72884;44.366;3.426;2023-12-04T11:57:19;2.00;;;0.82;;
83059;SDS011;72884;44.366;3.426;2023-12-04T11:59:39;3.33;;;0.90;;
83059;SDS011;72884;44.366;3.426;2023-12-04T12:02:08;5.38;;;0.70;;
83059;SDS011;72884;44.366;3.426;2023-12-04T12:04:34;0.88;;;0.80;;
83059;SDS011;72884;44.366;3.426;2023-12-04T12:07:00;3.92;;;1.00;;
83059;SDS011;72884;44.366;3.426;2023-12-04T12:09:28;6.18;;;1.27;;
83059;SDS011;72884;44.366;3.426;2023-12-04T12:11:54;3.70;;;1.13;;
83059;SDS011;72884;44.366;3.426;2023-12-04T12:14:20;6.95;;;1.85;;
83059;SDS011;72884;44.366;3.426;2023-12-04T12:16:46;5.43;;;1.50;;
83059;SDS011;72884;44.366;3.426;2023-12-04T12:19:12;5.03;;;1.20;;
83059;SDS011;72884;44.366;3.426;2023-12-04T12:21:37;5.07;;;1.13;;
83059;SDS011;72884;44.366;3.426;2023-12-04T12:24:05;2.42;;;1.20;;
83059;SDS011;72884;44.366;3.426;2023-12-04T12:26:30;2.20;;;1.30;;
83059;SDS011;72884;44.366;3.426;2023-12-04T12:28:56;6.40;;;1.40;;
83059;SDS011;72884;44.366;3.426;2023-12-04T12:31:21;4.30;;;1.00;;
83059;SDS011;72884;44.366;3.426;2023-12-04T12:33:47;5.32;;;1.60;;
83059;SDS011;72884;44.366;3.426;2023-12-04T12:36:12;10.77;;;1.83;;
83059;SDS011;72884;44.366;3.426;2023-12-04T12:38:38;12.00;;;2.92;;
83059;SDS011;72884;44.366;3.426;2023-12-04T12:41:06;8.65;;;2.08;;
83059;SDS011;72884;44.366;3.426;2023-12-04T12:43:33;11.40;;;1.88;;
83059;SDS011;72884;44.366;3.426;2023-12-04T12:45:58;12.32;;;2.40;;
83059;SDS011;72884;44.366;3.426;2023-12-04T12:48:24;14.38;;;2.00;;
83059;SDS011;72884;44.366;3.426;2023-12-04T12:50:52;15.30;;;2.70;;
83059;SDS011;72884;44.366;3.426;2023-12-04T12:53:17;13.00;;;2.70;;
83059;SDS011;72884;44.366;3.426;2023-12-04T12:55:43;25.80;;;2.70;;
83059;SDS011;72884;44.366;3.426;2023-12-04T12:58:12;25.88;;;3.15;;
83059;SDS011;72884;44.366;3.426;2023-12-04T13:00:45;24.92;;;2.42;;
83059;SDS011;72884;44.366;3.426;2023-12-04T13:03:14;26.20;;;2.95;;
83059;SDS011;72884;44.366;3.426;2023-12-04T13:05:43;23.88;;;3.45;;
83059;SDS011;72884;44.366;3.426;2023-12-04T13:08:09;32.67;;;3.90;;
83059;SDS011;72884;44.366;3.426;2023-12-04T13:10:36;30.67;;;4.22;;
83059;SDS011;72884;44.366;3.426;2023-12-04T13:13:02;23.13;;;3.45;;
83059;SDS011;72884;44.366;3.426;2023-12-04T13:15:27;24.25;;;3.75;;
83059;SDS011;72884;44.366;3.426;2023-12-04T13:17:53;34.47;;;4.82;;
83059;SDS011;72884;44.366;3.426;2023-12-04T13:20:18;32.63;;;3.78;;
83059;SDS011;72884;44.366;3.426;2023-12-04T13:22:43;26.88;;;4.13;;
83059;SDS011;72884;44.366;3.426;2023-12-04T13:25:09;34.67;;;4.75;;
83059;SDS011;72884;44.366;3.426;2023-12-04T13:27:36;40.38;;;5.22;;
83059;SDS011;72884;44.366;3.426;2023-12-04T13:30:05;41.65;;;5.38;;
83059;SDS011;72884;44.366;3.426;2023-12-04T13:32:31;43.30;;;4.50;;
83059;SDS011;72884;44.366;3.426;2023-12-04T13:34:58;45.53;;;5.30;;
83059;SDS011;72884;44.366;3.426;2023-12-04T13:37:25;38.22;;;5.05;;
83059;SDS011;72884;44.366;3.426;2023-12-04T13:39:53;39.88;;;6.13;;
83059;SDS011;72884;44.366;3.426;2023-12-04T13:42:23;45.47;;;6.28;;
83059;SDS011;72884;44.366;3.426;2023-12-04T13:47:34;69.28;;;8.18;;
83059;SDS011;72884;44.366;3.426;2023-12-04T13:50:01;68.07;;;7.85;;
83059;SDS011;72884;44.366;3.426;2023-12-04T13:52:26;74.18;;;7.82;;
83059;SDS011;72884;44.366;3.426;2023-12-04T13:54:55;85.07;;;10.60;;
83059;SDS011;72884;44.366;3.426;2023-12-04T13:57:22;92.40;;;11.35;;
83059;SDS011;72884;44.366;3.426;2023-12-04T13:59:53;107.03;;;11.85;;
83059;SDS011;72884;44.366;3.426;2023-12-04T14:02:22;122.60;;;14.68;;
83059;SDS011;72884;44.366;3.426;2023-12-04T14:04:47;141.50;;;16.42;;
83059;SDS011;72884;44.366;3.426;2023-12-04T14:07:13;144.75;;;17.48;;
83059;SDS011;72884;44.366;3.426;2023-12-04T14:09:39;136.68;;;17.60;;
83059;SDS011;72884;44.366;3.426;2023-12-04T14:12:05;183.18;;;19.48;;
83059;SDS011;72884;44.366;3.426;2023-12-04T14:14:30;161.48;;;19.10;;
83059;SDS011;72884;44.366;3.426;2023-12-04T14:16:58;150.20;;;18.25;;
83059;SDS011;72884;44.366;3.426;2023-12-04T14:19:23;143.02;;;19.02;;
83059;SDS011;72884;44.366;3.426;2023-12-04T14:21:48;153.32;;;18.23;;
83059;SDS011;72884;44.366;3.426;2023-12-04T14:24:14;133.80;;;18.17;;
83059;SDS011;72884;44.366;3.426;2023-12-04T14:26:39;132.75;;;17.40;;
83059;SDS011;72884;44.366;3.426;2023-12-04T14:29:05;139.75;;;18.80;;
83059;SDS011;72884;44.366;3.426;2023-12-04T14:31:33;128.90;;;17.33;;
83059;SDS011;72884;44.366;3.426;2023-12-04T14:34:01;174.98;;;21.02;;
83059;SDS011;72884;44.366;3.426;2023-12-04T14:36:28;163.95;;;21.65;;
83059;SDS011;72884;44.366;3.426;2023-12-04T14:38:53;162.13;;;19.98;;
83059;SDS011;72884;44.366;3.426;2023-12-04T14:41:18;161.90;;;20.10;;
83059;SDS011;72884;44.366;3.426;2023-12-04T14:43:44;170.35;;;23.48;;
83059;SDS011;72884;44.366;3.426;2023-12-04T14:46:09;164.15;;;22.38;;
83059;SDS011;72884;44.366;3.426;2023-12-04T14:48:36;164.32;;;21.70;;